createdAt,value
2023-04-05T00:01:34.582Z,3.72
2023-04-05T00:04:02.684Z,3.63
2023-04-05T00:06:30.123Z,3.20
2023-04-05T00:08:58.049Z,3.80
2023-04-05T00:11:28.537Z,3.60
2023-04-05T00:13:54.930Z,3.58
2023-04-05T00:16:21.372Z,3.92
2023-04-05T00:18:51.416Z,3.88
2023-04-05T00:21:24.208Z,4.00
2023-04-05T00:23:55.400Z,4.07
2023-04-05T00:26:21.879Z,3.90
2023-04-05T00:28:49.345Z,3.95
2023-04-05T00:31:16.621Z,3.47
2023-04-05T00:33:43.250Z,3.63
2023-04-05T00:36:17.246Z,3.58
2023-04-05T00:41:12.402Z,3.50
2023-04-05T00:46:19.496Z,3.88
2023-04-05T00:48:45.959Z,3.42
2023-04-05T00:51:12.512Z,3.63
2023-04-05T00:53:40.636Z,3.22
2023-04-05T00:56:07.633Z,3.85
2023-04-05T00:58:33.993Z,3.30
2023-04-05T01:01:13.539Z,3.28
2023-04-05T01:03:43.740Z,3.40
2023-04-05T01:06:17.439Z,3.08
2023-04-05T01:08:56.076Z,3.33
2023-04-05T01:11:23.305Z,3.00
2023-04-05T01:13:49.821Z,3.15
2023-04-05T01:16:16.774Z,3.20
2023-04-05T01:18:46.556Z,3.33
2023-04-05T01:21:23.094Z,3.25
2023-04-05T01:24:38.593Z,2.97
2023-04-05T01:27:11.074Z,3.15
2023-04-05T01:29:51.057Z,3.42
2023-04-05T01:32:49.832Z,3.38
2023-04-05T01:35:25.461Z,3.30
2023-04-05T01:37:56.552Z,3.80
2023-04-05T01:40:23.540Z,3.70
2023-04-05T01:42:49.946Z,3.40
2023-04-05T01:45:16.563Z,3.22
2023-04-05T01:47:43.095Z,3.40
2023-04-05T01:50:09.741Z,3.33
2023-04-05T01:52:36.276Z,3.35
2023-04-05T01:55:03.424Z,4.30
2023-04-05T01:57:29.912Z,3.10
2023-04-05T01:59:56.250Z,3.38
2023-04-05T02:02:22.658Z,3.28
2023-04-05T02:04:49.080Z,3.42
2023-04-05T02:07:15.621Z,3.20
2023-04-05T02:09:42.012Z,3.65
2023-04-05T02:12:08.380Z,3.33
2023-04-05T02:14:35.344Z,3.58
2023-04-05T02:17:03.158Z,3.78
2023-04-05T02:19:31.697Z,3.22
2023-04-05T02:21:58.104Z,3.42
2023-04-05T02:24:24.474Z,3.25
2023-04-05T02:26:51.357Z,3.40
2023-04-05T02:29:17.786Z,3.72
2023-04-05T02:31:44.308Z,3.70
2023-04-05T02:34:11.506Z,3.42
2023-04-05T02:36:37.899Z,4.72
2023-04-05T02:39:04.694Z,9.27
2023-04-05T02:41:31.161Z,12.75
2023-04-05T02:43:57.632Z,15.88
2023-04-05T02:46:24.044Z,14.35
2023-04-05T02:48:50.485Z,14.35
2023-04-05T02:53:57.207Z,7.55
2023-04-05T02:56:24.718Z,6.38
2023-04-05T02:58:51.397Z,4.63
2023-04-05T03:01:18.548Z,3.50
2023-04-05T03:03:45.004Z,3.33
2023-04-05T03:06:11.664Z,3.72
2023-04-05T03:08:39.005Z,3.70
2023-04-05T03:11:06.634Z,3.65
2023-04-05T03:13:33.484Z,3.42
2023-04-05T03:15:59.844Z,3.47
2023-04-05T03:18:26.721Z,3.40
2023-04-05T03:20:59.697Z,3.80
2023-04-05T03:23:29.580Z,3.53
2023-04-05T03:25:59.290Z,4.00
2023-04-05T03:28:25.983Z,3.20
2023-04-05T03:30:52.388Z,3.90
2023-04-05T03:33:19.725Z,4.00
2023-04-05T03:35:46.721Z,3.33
2023-04-05T03:38:13.206Z,3.90
2023-04-05T03:40:39.628Z,3.90
2023-04-05T03:43:05.975Z,3.58
2023-04-05T03:45:33.510Z,3.53
2023-04-05T03:48:00.050Z,3.92
2023-04-05T03:50:26.651Z,4.03
2023-04-05T03:52:53.419Z,3.80
2023-04-05T03:55:19.860Z,4.03
2023-04-05T03:57:47.192Z,3.78
2023-04-05T04:00:17.662Z,3.80
2023-04-05T04:02:45.307Z,4.32
2023-04-05T04:05:12.228Z,3.70
2023-04-05T04:07:38.679Z,3.53
2023-04-05T04:10:05.973Z,3.50
2023-04-05T04:12:32.391Z,4.10
2023-04-05T04:14:58.848Z,4.15
2023-04-05T04:17:32.622Z,4.32
2023-04-05T04:19:59.402Z,4.10
2023-04-05T04:22:26.720Z,3.97
2023-04-05T04:24:53.574Z,4.40
2023-04-05T04:27:20.753Z,4.00
2023-04-05T04:29:47.827Z,4.47
2023-04-05T04:32:15.435Z,4.40
2023-04-05T04:34:46.483Z,4.18
2023-04-05T04:37:18.383Z,4.05
2023-04-05T04:39:48.686Z,3.88
2023-04-05T04:42:19.930Z,4.20
2023-04-05T04:44:46.355Z,4.53
2023-04-05T04:47:17.349Z,4.80
2023-04-05T04:49:43.686Z,4.57
2023-04-05T04:52:10.332Z,4.22
2023-04-05T04:54:36.696Z,4.85
2023-04-05T04:57:03.320Z,4.32
2023-04-05T04:59:29.898Z,4.10
2023-04-05T05:01:56.345Z,4.30
2023-04-05T05:04:23.503Z,4.35
2023-04-05T05:06:53.574Z,3.95
2023-04-05T05:09:19.893Z,4.38
2023-04-05T05:11:46.222Z,4.47
2023-04-05T05:14:12.911Z,4.50
2023-04-05T05:16:39.301Z,4.80
2023-04-05T05:19:05.977Z,4.32
2023-04-05T05:21:32.443Z,4.50
2023-04-05T05:23:58.815Z,4.65
2023-04-05T05:26:25.271Z,6.70
2023-04-05T05:28:51.714Z,12.23
2023-04-05T05:31:18.298Z,16.95
2023-04-05T05:33:47.729Z,11.00
2023-04-05T05:36:14.093Z,7.88
2023-04-05T05:38:42.912Z,5.63
2023-04-05T05:41:09.272Z,5.20
2023-04-05T05:43:35.613Z,5.13
2023-04-05T05:46:02.375Z,5.70
2023-04-05T05:48:28.804Z,6.00
2023-04-05T05:50:56.225Z,6.22
2023-04-05T05:53:22.814Z,7.38
2023-04-05T05:55:49.151Z,9.55
2023-04-05T05:58:15.900Z,11.90
2023-04-05T06:00:42.646Z,10.57
2023-04-05T06:03:09.821Z,6.53
2023-04-05T06:05:36.554Z,5.82
2023-04-05T06:08:03.839Z,6.00
2023-04-05T06:10:30.994Z,4.63
2023-04-05T06:12:57.373Z,5.32
2023-04-05T06:15:23.791Z,4.85
2023-04-05T06:17:50.221Z,4.38
2023-04-05T06:20:16.836Z,4.80
2023-04-05T06:22:44.341Z,4.95
2023-04-05T06:25:12.710Z,5.05
2023-04-05T06:27:39.060Z,5.07
2023-04-05T06:30:06.362Z,5.05
2023-04-05T06:32:32.717Z,5.30
2023-04-05T06:35:00.688Z,5.45
2023-04-05T06:37:27.048Z,5.60
2023-04-05T06:39:53.715Z,4.80
2023-04-05T06:42:20.292Z,5.90
2023-04-05T06:44:46.723Z,5.40
2023-04-05T06:47:13.507Z,5.10
2023-04-05T06:49:39.868Z,5.00
2023-04-05T06:52:06.690Z,5.35
2023-04-05T06:54:33.626Z,4.50
2023-04-05T06:57:01.815Z,5.20
2023-04-05T06:59:29.769Z,4.75
2023-04-05T07:01:56.604Z,4.50
2023-04-05T07:04:23.095Z,4.40
2023-04-05T07:06:49.534Z,4.47
2023-04-05T07:09:16.027Z,3.90
2023-04-05T07:11:42.402Z,4.00
2023-04-05T07:14:08.831Z,4.18
2023-04-05T07:16:35.562Z,3.70
2023-04-05T07:19:02.112Z,3.72
2023-04-05T07:21:30.609Z,3.75
2023-04-05T07:24:00.658Z,4.10
2023-04-05T07:26:27.139Z,3.72
2023-04-05T07:28:53.539Z,4.05
2023-04-05T07:31:19.858Z,3.70
2023-04-05T07:33:46.240Z,4.03
2023-04-05T07:36:12.618Z,4.43
2023-04-05T07:38:39.229Z,4.18
2023-04-05T07:41:05.894Z,4.30
2023-04-05T07:43:32.242Z,4.35
2023-04-05T07:46:03.021Z,3.70
2023-04-05T07:48:29.665Z,3.95
2023-04-05T07:50:56.074Z,3.95
2023-04-05T07:53:22.428Z,3.55
2023-04-05T07:55:49.938Z,4.13
2023-04-05T07:58:16.338Z,4.22
2023-04-05T08:00:42.958Z,4.00
2023-04-05T08:03:09.579Z,4.25
2023-04-05T08:05:36.067Z,3.67
2023-04-05T08:08:02.639Z,3.63
2023-04-05T08:10:29.079Z,17.05
2023-04-05T08:12:55.500Z,4.40
2023-04-05T08:15:21.910Z,4.20
2023-04-05T08:17:48.442Z,3.63
2023-04-05T08:20:14.915Z,3.50
2023-04-05T08:22:41.395Z,3.75
2023-04-05T08:25:08.464Z,3.78
2023-04-05T08:27:34.855Z,3.65
2023-04-05T08:30:01.303Z,3.20
2023-04-05T08:32:27.782Z,3.30
2023-04-05T08:34:54.202Z,3.22
2023-04-05T08:37:20.717Z,3.42
2023-04-05T08:39:47.090Z,3.50
2023-04-05T08:42:17.898Z,3.03
2023-04-05T08:44:52.290Z,3.38
2023-04-05T08:47:19.526Z,3.65
2023-04-05T08:49:46.478Z,3.47
2023-04-05T08:52:13.057Z,3.38
2023-04-05T08:54:39.635Z,2.97
2023-04-05T08:57:07.599Z,3.28
2023-04-05T08:59:37.844Z,3.17
2023-04-05T09:02:07.961Z,3.40
2023-04-05T09:04:39.614Z,3.05
2023-04-05T09:07:06.832Z,3.70
2023-04-05T09:09:36.089Z,3.28
2023-04-05T09:12:06.513Z,3.17
2023-04-05T09:14:34.369Z,3.05
2023-04-05T09:17:04.214Z,3.60
2023-04-05T09:19:32.677Z,3.60
2023-04-05T09:22:06.786Z,3.90
2023-04-05T09:27:08.146Z,3.78
2023-04-05T09:29:34.845Z,3.20
2023-04-05T09:32:03.182Z,3.13
2023-04-05T09:34:31.821Z,3.40
2023-04-05T09:36:58.310Z,3.55
2023-04-05T09:39:32.502Z,3.47
2023-04-05T09:44:57.284Z,3.55
2023-04-05T09:47:27.710Z,3.42
2023-04-05T09:49:54.391Z,3.72
2023-04-05T09:52:26.334Z,2.90
2023-04-05T09:54:56.587Z,3.05
2023-04-05T09:57:23.971Z,3.50
2023-04-05T09:59:50.576Z,3.20
2023-04-05T10:02:17.118Z,3.20
2023-04-05T10:04:45.734Z,3.70
2023-04-05T10:07:14.453Z,3.38
2023-04-05T10:09:42.291Z,3.60
2023-04-05T10:12:09.883Z,3.17
2023-04-05T10:14:39.252Z,3.38
2023-04-05T10:17:16.870Z,3.10
2023-04-05T10:20:16.645Z,3.75
2023-04-05T10:22:53.008Z,3.58
2023-04-05T10:25:27.502Z,3.28
2023-04-05T10:27:58.425Z,3.30
2023-04-05T10:30:25.457Z,3.03
2023-04-05T10:33:12.315Z,3.33
2023-04-05T10:36:05.605Z,3.60
2023-04-05T10:38:42.696Z,3.10
2023-04-05T10:41:10.545Z,3.10
2023-04-05T10:43:40.285Z,3.53
2023-04-05T10:46:07.787Z,3.15
2023-04-05T10:48:40.754Z,3.25
2023-04-05T10:51:07.428Z,3.53
2023-04-05T10:53:33.878Z,3.22
2023-04-05T10:56:01.298Z,3.20
2023-04-05T10:58:29.423Z,3.80
2023-04-05T11:00:56.203Z,3.00
2023-04-05T11:03:41.712Z,3.20
2023-04-05T11:06:29.323Z,3.25
2023-04-05T11:09:00.918Z,3.00
2023-04-05T11:11:27.702Z,3.17
2023-04-05T11:13:57.797Z,3.30
2023-04-05T11:16:38.187Z,2.92
2023-04-05T11:19:04.587Z,3.05
2023-04-05T11:21:31.292Z,3.72
2023-04-05T11:24:08.177Z,3.70
2023-04-05T11:26:54.353Z,3.00
2023-04-05T11:29:48.583Z,2.75
2023-04-05T11:32:15.482Z,3.10
2023-04-05T11:34:43.500Z,2.95
2023-04-05T11:37:10.372Z,3.00
2023-04-05T11:39:39.073Z,3.42
2023-04-05T11:42:06.935Z,2.95
2023-04-05T11:44:46.789Z,3.83
2023-04-05T11:47:14.073Z,2.97
2023-04-05T11:49:42.040Z,2.75
2023-04-05T11:52:14.215Z,2.97
2023-04-05T11:54:45.975Z,2.75
2023-04-05T11:57:19.641Z,3.47
2023-04-05T11:59:46.541Z,2.97
2023-04-05T12:02:12.895Z,2.75
2023-04-05T12:04:40.351Z,2.63
2023-04-05T12:07:13.981Z,3.20
2023-04-05T12:10:02.466Z,2.95
2023-04-05T12:12:33.990Z,2.63
2023-04-05T12:15:01.985Z,3.05
2023-04-05T12:17:57.965Z,2.60
2023-04-05T12:20:25.656Z,2.78
2023-04-05T12:22:56.780Z,3.05
2023-04-05T12:25:23.913Z,3.20
2023-04-05T12:27:50.336Z,3.03
2023-04-05T12:30:21.342Z,3.90
2023-04-05T12:32:50.995Z,3.08
2023-04-05T12:35:20.491Z,3.30
2023-04-05T12:37:47.342Z,2.90
2023-04-05T12:40:14.025Z,3.05
2023-04-05T12:42:46.909Z,2.85
2023-04-05T12:45:13.860Z,2.70
2023-04-05T12:47:51.052Z,2.47
2023-04-05T12:50:18.870Z,3.05
2023-04-05T12:52:57.105Z,2.90
2023-04-05T12:55:24.161Z,2.97
2023-04-05T12:57:55.657Z,2.75
2023-04-05T13:00:26.091Z,2.95
2023-04-05T13:02:53.737Z,2.97
2023-04-05T13:05:24.748Z,2.85
2023-04-05T13:07:51.267Z,2.75
2023-04-05T13:10:19.339Z,3.03
2023-04-05T13:12:45.763Z,2.80
2023-04-05T13:15:13.759Z,3.47
2023-04-05T13:17:41.410Z,2.88
2023-04-05T13:20:08.788Z,2.67
2023-04-05T13:22:35.374Z,3.42
2023-04-05T13:25:02.141Z,3.33
2023-04-05T13:27:28.452Z,3.20
2023-04-05T13:29:55.027Z,2.80
2023-04-05T13:32:21.416Z,2.45
2023-04-05T13:34:48.699Z,2.92
2023-04-05T13:37:15.729Z,3.28
2023-04-05T13:39:42.109Z,3.08
2023-04-05T13:42:08.871Z,3.50
2023-04-05T13:44:35.360Z,2.92
2023-04-05T13:47:01.878Z,3.25
2023-04-05T13:49:28.205Z,3.20
2023-04-05T13:51:54.526Z,3.30
2023-04-05T13:54:20.928Z,2.92
2023-04-05T13:56:47.887Z,3.22
2023-04-05T13:59:17.246Z,3.13
2023-04-05T14:01:46.888Z,3.15
2023-04-05T14:04:13.747Z,3.25
2023-04-05T14:06:40.190Z,2.95
2023-04-05T14:09:06.603Z,2.85
2023-04-05T14:11:33.019Z,3.17
2023-04-05T14:13:59.520Z,3.22
2023-04-05T14:16:26.235Z,3.22
2023-04-05T14:18:52.665Z,3.08
2023-04-05T14:21:19.083Z,3.08
2023-04-05T14:23:45.930Z,3.00
2023-04-05T14:26:12.381Z,3.30
2023-04-05T14:28:38.919Z,3.53
2023-04-05T14:31:05.335Z,3.10
2023-04-05T14:33:31.723Z,2.92
2023-04-05T14:35:58.195Z,2.78
2023-04-05T14:38:25.007Z,3.10
2023-04-05T14:40:51.365Z,3.33
2023-04-05T14:43:18.849Z,3.15
2023-04-05T14:45:45.662Z,3.25
2023-04-05T14:48:12.532Z,3.13
2023-04-05T14:50:39.172Z,3.25
2023-04-05T14:53:05.800Z,3.25
2023-04-05T14:55:32.456Z,2.67
2023-04-05T14:57:58.866Z,3.25
2023-04-05T15:00:28.197Z,2.70
2023-04-05T15:02:54.822Z,3.22
2023-04-05T15:05:21.447Z,3.20
2023-04-05T15:07:47.913Z,3.00
2023-04-05T15:10:14.383Z,3.13
2023-04-05T15:12:42.797Z,3.28
2023-04-05T15:15:09.420Z,3.10
2023-04-05T15:17:35.852Z,3.17
2023-04-05T15:20:02.327Z,2.90
2023-04-05T15:22:28.820Z,2.80
2023-04-05T15:24:56.783Z,3.25
2023-04-05T15:27:23.361Z,3.13
2023-04-05T15:29:49.750Z,2.67
2023-04-05T15:32:16.383Z,3.67
2023-04-05T15:34:42.744Z,3.28
2023-04-05T15:37:10.189Z,2.97
2023-04-05T15:39:36.821Z,3.50
2023-04-05T15:42:03.576Z,3.50
2023-04-05T15:44:30.609Z,2.97
2023-04-05T15:46:57.010Z,3.13
2023-04-05T15:49:23.409Z,3.20
2023-04-05T15:51:49.839Z,3.22
2023-04-05T15:54:18.750Z,3.28
2023-04-05T15:56:45.317Z,3.17
2023-04-05T15:59:11.902Z,3.05
2023-04-05T16:01:39.089Z,3.20
2023-04-05T16:04:05.932Z,3.50
2023-04-05T16:06:32.598Z,2.90
2023-04-05T16:08:59.314Z,3.22
2023-04-05T16:11:26.092Z,3.38
2023-04-05T16:13:53.672Z,3.30
2023-04-05T16:16:29.888Z,3.00
2023-04-05T16:19:05.050Z,3.42
2023-04-05T16:21:31.808Z,3.58
2023-04-05T16:24:00.977Z,3.42
2023-04-05T16:26:27.733Z,3.53
2023-04-05T16:28:54.081Z,3.20
2023-04-05T16:31:20.539Z,3.35
2023-04-05T16:33:46.967Z,3.20
2023-04-05T16:36:13.419Z,3.00
2023-04-05T16:38:42.104Z,3.22
2023-04-05T16:41:09.840Z,3.50
2023-04-05T16:43:36.184Z,3.50
2023-04-05T16:46:02.609Z,3.60
2023-04-05T16:48:30.591Z,3.38
2023-04-05T16:50:57.272Z,3.40
2023-04-05T16:53:23.658Z,3.28
2023-04-05T16:55:50.316Z,3.17
2023-04-05T16:58:16.932Z,3.30
2023-04-05T17:00:43.558Z,2.90
2023-04-05T17:03:10.065Z,3.30
2023-04-05T17:05:38.120Z,2.50
2023-04-05T17:08:04.581Z,3.05
2023-04-05T17:10:31.029Z,3.38
2023-04-05T17:12:57.513Z,3.30
2023-04-05T17:15:23.948Z,2.95
2023-04-05T17:17:50.434Z,3.67
2023-04-05T17:20:16.834Z,3.63
2023-04-05T17:22:43.507Z,3.03
2023-04-05T17:25:11.004Z,3.00
2023-04-05T17:27:37.440Z,3.28
2023-04-05T17:30:04.229Z,3.35
2023-04-05T17:32:31.092Z,3.47
2023-04-05T17:34:57.536Z,3.00
2023-04-05T17:37:23.963Z,3.33
2023-04-05T17:39:50.348Z,2.92
2023-04-05T17:42:17.198Z,3.17
2023-04-05T17:44:44.049Z,3.60
2023-04-05T17:47:10.610Z,3.90
2023-04-05T17:49:37.628Z,3.33
2023-04-05T17:52:05.452Z,3.50
2023-04-05T17:54:32.035Z,3.38
2023-04-05T17:56:58.384Z,3.72
2023-04-05T17:59:24.948Z,3.40
2023-04-05T18:01:53.679Z,3.92
2023-04-05T18:04:21.473Z,3.50
2023-04-05T18:06:48.032Z,3.30
2023-04-05T18:09:14.486Z,3.60
2023-04-05T18:11:41.371Z,3.20
2023-04-05T18:14:07.913Z,3.38
2023-04-05T18:16:34.589Z,2.58
2023-04-05T18:19:01.070Z,2.25
2023-04-05T18:21:28.414Z,2.70
2023-04-05T18:23:54.753Z,2.55
2023-04-05T18:26:21.233Z,2.72
2023-04-05T18:28:48.965Z,2.50
2023-04-05T18:31:15.994Z,2.80
2023-04-05T18:33:42.397Z,2.70
2023-04-05T18:36:08.849Z,2.45
2023-04-05T18:38:35.343Z,2.35
2023-04-05T18:41:03.879Z,2.22
2023-04-05T18:43:30.913Z,2.70
2023-04-05T18:45:57.706Z,2.47
2023-04-05T18:48:25.129Z,2.53
2023-04-05T18:50:53.774Z,2.42
2023-04-05T18:53:21.297Z,2.50
2023-04-05T18:55:51.274Z,2.95
2023-04-05T18:58:17.802Z,2.67
2023-04-05T19:00:44.235Z,2.72
2023-04-05T19:03:10.905Z,2.85
2023-04-05T19:05:37.364Z,2.85
2023-04-05T19:08:04.271Z,2.90
2023-04-05T19:10:30.958Z,2.78
2023-04-05T19:12:57.524Z,2.70
2023-04-05T19:15:23.947Z,2.78
2023-04-05T19:17:50.445Z,2.80
2023-04-05T19:20:16.834Z,2.83
2023-04-05T19:22:43.199Z,2.92
2023-04-05T19:25:09.762Z,2.50
2023-04-05T19:27:36.574Z,2.80
2023-04-05T19:30:04.073Z,2.70
2023-04-05T19:32:30.844Z,2.40
2023-04-05T19:35:00.890Z,2.80
2023-04-05T19:37:27.412Z,2.65
2023-04-05T19:39:54.276Z,2.95
2023-04-05T19:42:21.206Z,2.65
2023-04-05T19:44:54.753Z,2.50
2023-04-05T19:47:22.900Z,2.78
2023-04-05T19:49:51.231Z,2.40
2023-04-05T19:52:41.247Z,3.83
2023-04-05T19:55:33.178Z,3.13
2023-04-05T19:58:01.552Z,2.53
2023-04-05T20:00:43.724Z,2.83
2023-04-05T20:03:30.256Z,3.53
2023-04-05T20:06:09.485Z,2.97
2023-04-05T20:08:40.385Z,3.03
2023-04-05T20:11:13.952Z,3.20
2023-04-05T20:13:58.055Z,3.28
2023-04-05T20:16:32.762Z,2.50
2023-04-05T20:19:06.146Z,2.85
2023-04-05T20:21:33.170Z,2.92
2023-04-05T20:24:00.919Z,2.58
2023-04-05T20:26:31.133Z,2.55
2023-04-05T20:28:59.691Z,2.95
2023-04-05T20:31:29.219Z,2.95
2023-04-05T20:34:11.627Z,3.00
2023-04-05T20:36:51.898Z,3.35
2023-04-05T20:39:18.551Z,2.80
2023-04-05T20:41:46.226Z,2.88
2023-04-05T20:44:13.891Z,2.97
2023-04-05T20:46:40.868Z,2.80
2023-04-05T20:49:07.960Z,2.55
2023-04-05T20:51:34.689Z,2.88
2023-04-05T20:54:01.169Z,2.65
2023-04-05T20:56:27.522Z,2.92
2023-04-05T20:58:57.052Z,2.72
2023-04-05T21:01:23.597Z,3.13
2023-04-05T21:03:50.102Z,2.28
2023-04-05T21:06:16.534Z,2.30
2023-04-05T21:08:43.193Z,2.85
2023-04-05T21:11:11.680Z,2.60
2023-04-05T21:13:39.115Z,2.90
2023-04-05T21:16:05.768Z,2.58
2023-04-05T21:18:32.485Z,3.08
2023-04-05T21:21:00.376Z,2.50
2023-04-05T21:23:28.509Z,2.83
2023-04-05T21:25:56.180Z,2.78
2023-04-05T21:28:22.909Z,2.53
2023-04-05T21:30:49.335Z,2.75
2023-04-05T21:33:16.271Z,2.75
2023-04-05T21:35:42.776Z,2.78
2023-04-05T21:38:09.206Z,2.92
2023-04-05T21:40:35.907Z,3.10
2023-04-05T21:43:02.396Z,2.67
2023-04-05T21:45:28.806Z,2.80
2023-04-05T21:47:55.433Z,2.75
2023-04-05T21:50:21.881Z,2.55
2023-04-05T21:52:48.275Z,2.80
2023-04-05T21:55:14.863Z,2.45
2023-04-05T21:57:41.286Z,2.80
2023-04-05T22:00:11.273Z,2.60
2023-04-05T22:02:38.913Z,2.58
2023-04-05T22:05:06.897Z,2.83
2023-04-05T22:07:33.373Z,2.72
2023-04-05T22:10:00.282Z,2.75
2023-04-05T22:12:26.677Z,2.72
2023-04-05T22:14:53.125Z,2.55
2023-04-05T22:17:19.704Z,2.92
2023-04-05T22:19:47.419Z,2.78
2023-04-05T22:22:15.003Z,3.33
2023-04-05T22:24:41.985Z,2.75
2023-04-05T22:27:08.871Z,3.10
2023-04-05T22:29:35.392Z,3.00
2023-04-05T22:32:10.747Z,4.22
2023-04-05T22:34:37.193Z,4.63
2023-04-05T22:37:03.635Z,4.10
2023-04-05T22:39:30.073Z,3.60
2023-04-05T22:41:56.591Z,3.42
2023-04-05T22:44:24.395Z,3.60
2023-04-05T22:47:01.951Z,3.50
2023-04-05T22:49:28.415Z,3.47
2023-04-05T22:51:57.252Z,2.83
2023-04-05T22:54:23.655Z,3.58
2023-04-05T22:56:50.569Z,2.95
2023-04-05T22:59:17.674Z,3.22
2023-04-05T23:01:44.174Z,3.20
2023-04-05T23:04:10.989Z,2.70
2023-04-05T23:06:37.536Z,2.58
2023-04-05T23:09:07.712Z,2.20
2023-04-05T23:11:36.854Z,2.20
2023-04-05T23:14:03.445Z,2.65
2023-04-05T23:16:29.975Z,2.83
2023-04-05T23:18:56.428Z,2.80
2023-04-05T23:21:22.818Z,3.20
2023-04-05T23:23:49.226Z,3.13
2023-04-05T23:26:21.819Z,3.20
2023-04-05T23:28:48.264Z,3.47
2023-04-05T23:31:14.684Z,2.83
2023-04-05T23:33:41.041Z,3.33
2023-04-05T23:36:07.990Z,3.00
2023-04-05T23:38:34.457Z,2.95
2023-04-05T23:41:00.865Z,3.25
2023-04-05T23:43:27.249Z,3.35
2023-04-05T23:45:53.621Z,3.20
2023-04-05T23:48:20.083Z,3.22
2023-04-05T23:50:46.575Z,4.00
2023-04-05T23:53:13.016Z,3.38
2023-04-05T23:55:41.924Z,3.40
2023-04-05T23:58:08.741Z,3.70
